createdAt,value
2019-03-31T00:02:27.273Z,7.59
2019-03-31T00:04:55.767Z,7.46
2019-03-31T00:07:24.320Z,7.44
2019-03-31T00:09:52.777Z,7.43
2019-03-31T00:12:21.277Z,7.41
2019-03-31T00:14:49.764Z,7.42
2019-03-31T00:17:18.258Z,7.37
2019-03-31T00:19:46.732Z,7.31
2019-03-31T00:22:15.227Z,7.35
2019-03-31T00:24:43.714Z,7.36
2019-03-31T00:27:12.185Z,7.28
2019-03-31T00:29:40.679Z,7.15
2019-03-31T00:32:09.231Z,7.10
2019-03-31T00:34:37.713Z,7.02
2019-03-31T00:37:07.879Z,7.03
2019-03-31T00:39:36.575Z,6.97
2019-03-31T00:42:05.197Z,6.94
2019-03-31T00:44:33.754Z,6.91
2019-03-31T00:47:02.459Z,6.93
2019-03-31T00:49:30.974Z,6.98
2019-03-31T00:51:59.459Z,7.00
2019-03-31T00:54:28.053Z,7.01
2019-03-31T00:56:56.526Z,6.92
2019-03-31T00:59:25.000Z,6.83
2019-03-31T01:01:58.190Z,6.81
2019-03-31T01:04:29.655Z,6.87
2019-03-31T01:06:58.729Z,6.97
2019-03-31T01:09:29.538Z,7.01
2019-03-31T01:11:58.306Z,7.00
2019-03-31T01:14:27.923Z,6.95
2019-03-31T01:16:56.766Z,6.86
2019-03-31T01:19:25.422Z,6.76
2019-03-31T01:21:53.971Z,6.72
2019-03-31T01:24:22.525Z,6.72
2019-03-31T01:26:51.033Z,6.72
2019-03-31T01:29:19.531Z,6.75
2019-03-31T01:31:50.556Z,6.81
2019-03-31T01:34:19.450Z,6.83
2019-03-31T01:36:47.926Z,6.86
2019-03-31T01:39:16.493Z,6.87
2019-03-31T01:41:45.067Z,6.86
2019-03-31T01:44:13.947Z,6.75
2019-03-31T01:46:42.458Z,6.66
2019-03-31T01:49:10.956Z,6.64
2019-03-31T01:51:39.447Z,6.62
2019-03-31T01:54:07.937Z,6.64
2019-03-31T01:56:36.458Z,6.72
2019-03-31T01:59:04.944Z,6.83
2019-03-31T02:01:33.487Z,6.99
2019-03-31T02:04:01.985Z,7.14
2019-03-31T02:06:30.554Z,7.26
2019-03-31T02:08:59.026Z,7.31
2019-03-31T02:11:27.527Z,7.28
2019-03-31T02:13:56.009Z,7.23
2019-03-31T02:16:24.557Z,7.11
2019-03-31T02:18:53.072Z,7.06
2019-03-31T02:21:21.548Z,7.04
2019-03-31T02:23:50.026Z,7.04
2019-03-31T02:26:18.535Z,7.04
2019-03-31T02:28:47.041Z,7.01
2019-03-31T02:31:15.594Z,7.05
2019-03-31T02:33:44.075Z,7.08
2019-03-31T02:36:12.597Z,6.98
2019-03-31T02:38:41.084Z,6.93
2019-03-31T02:41:09.564Z,6.87
2019-03-31T02:43:38.074Z,6.79
2019-03-31T02:46:06.655Z,6.66
2019-03-31T02:48:35.144Z,6.61
2019-03-31T02:51:03.743Z,6.55
2019-03-31T02:53:32.382Z,6.52
2019-03-31T02:56:01.534Z,6.44
2019-03-31T02:58:32.066Z,6.41
2019-03-31T03:01:00.893Z,6.36
2019-03-31T03:03:32.368Z,6.19
2019-03-31T03:06:02.554Z,6.16
2019-03-31T03:08:33.727Z,6.21
2019-03-31T03:11:03.845Z,6.28
2019-03-31T03:13:34.944Z,6.36
2019-03-31T03:16:09.272Z,6.40
2019-03-31T03:18:37.756Z,6.35
2019-03-31T03:21:06.328Z,6.30
2019-03-31T03:23:34.791Z,6.33
2019-03-31T03:26:03.268Z,6.41
2019-03-31T03:28:31.854Z,6.51
2019-03-31T03:31:00.795Z,6.61
2019-03-31T03:33:29.485Z,6.64
2019-03-31T03:35:58.006Z,6.63
2019-03-31T03:38:26.483Z,6.55
2019-03-31T03:40:54.955Z,6.46
2019-03-31T03:43:23.446Z,6.38
2019-03-31T03:45:51.933Z,6.31
2019-03-31T03:48:20.506Z,6.29
2019-03-31T03:50:48.995Z,6.21
2019-03-31T03:53:17.518Z,6.29
2019-03-31T03:55:45.996Z,6.45
2019-03-31T03:58:14.483Z,6.55
2019-03-31T04:00:42.998Z,6.59
2019-03-31T04:03:28.584Z,6.62
2019-03-31T04:05:41.688Z,6.58
2019-03-31T04:08:10.170Z,6.61
2019-03-31T04:10:47.429Z,6.66
2019-03-31T04:13:15.945Z,6.74
2019-03-31T04:15:44.598Z,6.78
2019-03-31T04:18:13.070Z,6.78
2019-03-31T04:20:41.595Z,6.75
2019-03-31T04:23:10.078Z,6.65
2019-03-31T04:25:38.551Z,6.54
2019-03-31T04:28:07.063Z,6.46
2019-03-31T04:30:35.538Z,6.34
2019-03-31T04:33:04.015Z,6.25
2019-03-31T04:35:32.497Z,6.16
2019-03-31T04:38:01.029Z,6.08
2019-03-31T04:40:29.524Z,6.04
2019-03-31T04:42:57.989Z,6.01
2019-03-31T04:45:26.565Z,5.98
2019-03-31T04:47:55.045Z,5.98
2019-03-31T04:50:23.514Z,5.97
2019-03-31T04:52:52.016Z,5.89
2019-03-31T04:55:20.511Z,5.81
2019-03-31T04:57:48.998Z,5.79
2019-03-31T05:00:17.481Z,5.75
2019-03-31T05:02:45.965Z,5.73
2019-03-31T05:05:14.452Z,5.73
2019-03-31T05:07:42.973Z,5.76
2019-03-31T05:10:11.601Z,5.79
2019-03-31T05:12:40.077Z,5.83
2019-03-31T05:15:08.651Z,5.80
2019-03-31T05:17:37.141Z,5.73
2019-03-31T05:20:06.748Z,5.61
2019-03-31T05:22:35.408Z,5.57
2019-03-31T05:25:04.629Z,5.60
2019-03-31T05:27:33.118Z,5.57
2019-03-31T05:30:01.649Z,5.53
2019-03-31T05:32:30.136Z,5.55
2019-03-31T05:34:58.632Z,5.68
2019-03-31T05:37:27.131Z,5.71
2019-03-31T05:39:55.646Z,5.82
2019-03-31T05:42:24.134Z,6.04
2019-03-31T05:44:52.667Z,6.16
2019-03-31T05:47:21.227Z,6.33
2019-03-31T05:49:49.733Z,6.52
2019-03-31T05:52:23.370Z,6.53
2019-03-31T05:54:51.853Z,6.42
2019-03-31T05:57:20.335Z,6.35
2019-03-31T05:59:48.832Z,6.23
2019-03-31T06:02:17.295Z,6.17
2019-03-31T06:04:45.833Z,6.29
2019-03-31T06:07:14.309Z,6.22
2019-03-31T06:09:42.802Z,6.05
2019-03-31T06:12:11.308Z,6.08
2019-03-31T06:14:39.800Z,6.09
2019-03-31T06:17:08.288Z,6.01
2019-03-31T06:19:36.818Z,5.75
2019-03-31T06:22:05.324Z,5.59
2019-03-31T06:24:33.801Z,5.68
2019-03-31T06:27:02.293Z,5.54
2019-03-31T06:29:30.768Z,5.79
2019-03-31T06:31:59.247Z,5.98
2019-03-31T06:34:27.742Z,6.19
2019-03-31T06:36:56.430Z,6.18
2019-03-31T06:39:24.918Z,6.13
2019-03-31T06:41:53.576Z,5.83
2019-03-31T06:44:22.005Z,5.66
2019-03-31T06:46:50.496Z,5.47
2019-03-31T06:49:18.995Z,5.42
2019-03-31T06:51:47.478Z,5.39
2019-03-31T06:54:15.966Z,5.44
2019-03-31T06:56:47.103Z,5.75
2019-03-31T06:59:14.659Z,5.97
2019-03-31T07:01:43.145Z,5.91
2019-03-31T07:04:11.621Z,5.85
2019-03-31T07:06:40.519Z,5.91
2019-03-31T07:09:09.046Z,5.92
2019-03-31T07:11:37.540Z,5.79
2019-03-31T07:14:06.025Z,5.74
2019-03-31T07:16:34.772Z,5.80
2019-03-31T07:19:03.236Z,5.74
2019-03-31T07:21:31.724Z,5.76
2019-03-31T07:24:00.228Z,5.71
2019-03-31T07:26:28.749Z,5.59
2019-03-31T07:28:57.220Z,5.62
2019-03-31T07:31:35.686Z,5.65
2019-03-31T07:34:04.149Z,5.57
2019-03-31T07:36:32.713Z,5.65
2019-03-31T07:39:01.351Z,5.81
2019-03-31T07:41:30.235Z,5.83
2019-03-31T07:43:58.998Z,5.80
2019-03-31T07:46:27.485Z,5.65
2019-03-31T07:48:55.984Z,5.73
2019-03-31T07:51:24.575Z,5.91
2019-03-31T07:53:53.083Z,5.93
2019-03-31T07:56:21.569Z,5.93
2019-03-31T07:58:50.065Z,5.86
2019-03-31T08:01:18.583Z,5.74
2019-03-31T08:03:47.080Z,5.72
2019-03-31T08:06:15.639Z,5.81
2019-03-31T08:08:44.146Z,5.79
2019-03-31T08:11:12.675Z,5.86
2019-03-31T08:13:41.178Z,5.99
2019-03-31T08:16:09.672Z,6.40
2019-03-31T08:18:38.172Z,6.97
2019-03-31T08:21:06.999Z,7.59
2019-03-31T08:23:35.523Z,8.19
2019-03-31T08:26:04.022Z,8.63
2019-03-31T08:28:32.531Z,8.89
2019-03-31T08:31:01.405Z,9.20
2019-03-31T08:33:29.906Z,9.73
2019-03-31T08:35:58.411Z,10.04
2019-03-31T08:38:26.912Z,10.35
2019-03-31T08:40:55.420Z,10.76
2019-03-31T08:43:23.905Z,11.08
2019-03-31T08:45:52.483Z,11.27
2019-03-31T08:48:21.005Z,11.56
2019-03-31T08:50:49.627Z,11.86
2019-03-31T08:53:18.190Z,12.23
2019-03-31T08:55:46.733Z,12.66
2019-03-31T08:58:15.239Z,13.00
2019-03-31T09:00:48.229Z,13.24
2019-03-31T09:03:16.966Z,13.47
2019-03-31T09:05:45.475Z,13.72
2019-03-31T09:08:13.969Z,13.80
2019-03-31T09:10:42.504Z,13.87
2019-03-31T09:13:11.011Z,14.00
2019-03-31T09:15:39.526Z,14.06
2019-03-31T09:18:08.045Z,14.20
2019-03-31T09:20:36.537Z,14.41
2019-03-31T09:23:05.112Z,14.59
2019-03-31T09:25:33.637Z,14.61
2019-03-31T09:28:02.125Z,14.60
2019-03-31T09:30:30.612Z,14.68
2019-03-31T09:32:59.157Z,14.89
2019-03-31T09:35:27.663Z,15.03
2019-03-31T09:37:56.170Z,15.17
2019-03-31T09:40:24.675Z,15.20
2019-03-31T09:42:53.234Z,15.28
2019-03-31T09:45:21.802Z,15.44
2019-03-31T09:47:50.330Z,15.45
2019-03-31T09:50:19.065Z,15.48
2019-03-31T09:52:47.558Z,15.54
2019-03-31T09:55:16.224Z,15.67
2019-03-31T09:57:44.736Z,15.70
2019-03-31T10:00:16.096Z,15.67
2019-03-31T10:02:44.681Z,15.72
2019-03-31T10:05:13.311Z,15.79
2019-03-31T10:07:41.880Z,15.68
2019-03-31T10:10:13.440Z,15.85
2019-03-31T10:12:41.950Z,16.10
2019-03-31T10:15:10.580Z,16.11
2019-03-31T10:17:39.090Z,16.17
2019-03-31T10:20:08.052Z,16.29
2019-03-31T10:22:36.524Z,16.43
2019-03-31T10:25:07.043Z,16.57
2019-03-31T10:27:35.742Z,16.78
2019-03-31T10:30:06.578Z,16.76
2019-03-31T10:36:03.375Z,16.57
2019-03-31T10:38:31.890Z,16.73
2019-03-31T10:41:00.410Z,17.04
2019-03-31T10:43:28.899Z,17.25
2019-03-31T10:45:57.398Z,17.37
2019-03-31T10:48:25.897Z,17.16
2019-03-31T10:50:54.398Z,17.27
2019-03-31T10:53:22.956Z,17.33
2019-03-31T10:55:51.469Z,17.46
2019-03-31T10:58:19.959Z,17.50
2019-03-31T11:00:48.625Z,17.64
2019-03-31T11:03:17.088Z,17.78
2019-03-31T11:05:45.584Z,18.02
2019-03-31T11:08:14.246Z,18.25
2019-03-31T11:10:42.869Z,18.31
2019-03-31T11:13:11.379Z,18.36
2019-03-31T11:15:39.857Z,18.37
2019-03-31T11:18:08.441Z,18.49
2019-03-31T11:20:37.131Z,18.65
2019-03-31T11:23:07.269Z,18.89
2019-03-31T11:25:35.811Z,18.73
2019-03-31T11:28:04.815Z,18.97
2019-03-31T11:30:33.390Z,19.13
2019-03-31T11:33:02.005Z,19.07
2019-03-31T11:35:30.632Z,19.00
2019-03-31T11:37:59.126Z,19.15
2019-03-31T11:40:27.703Z,19.25
2019-03-31T11:42:56.306Z,19.01
2019-03-31T11:45:24.867Z,19.08
2019-03-31T11:47:53.358Z,19.10
2019-03-31T11:50:22.129Z,19.21
2019-03-31T11:52:50.621Z,19.21
2019-03-31T11:55:19.124Z,19.20
2019-03-31T11:57:47.633Z,19.23
2019-03-31T12:00:18.734Z,19.27
2019-03-31T12:02:47.322Z,19.36
2019-03-31T12:05:16.064Z,19.10
2019-03-31T12:07:46.986Z,19.27
2019-03-31T12:10:14.948Z,19.31
2019-03-31T12:12:43.444Z,19.36
2019-03-31T12:15:12.119Z,19.67
2019-03-31T12:17:40.591Z,19.68
2019-03-31T12:20:09.431Z,19.72
2019-03-31T12:22:37.934Z,19.69
2019-03-31T12:25:08.164Z,19.59
2019-03-31T12:27:36.679Z,19.79
2019-03-31T12:30:08.568Z,19.59
2019-03-31T12:32:38.603Z,19.36
2019-03-31T12:35:08.235Z,19.43
2019-03-31T12:37:42.597Z,19.79
2019-03-31T12:40:09.273Z,19.90
2019-03-31T12:42:37.768Z,19.54
2019-03-31T12:45:06.816Z,19.63
2019-03-31T12:47:35.372Z,20.10
2019-03-31T12:50:05.221Z,20.20
2019-03-31T12:52:46.126Z,20.22
2019-03-31T12:55:04.455Z,20.14
2019-03-31T12:57:32.979Z,20.08
2019-03-31T13:00:01.474Z,20.19
2019-03-31T13:02:35.108Z,20.30
2019-03-31T13:05:04.996Z,20.44
2019-03-31T13:07:33.495Z,20.49
2019-03-31T13:10:02.021Z,20.46
2019-03-31T13:12:35.687Z,20.27
2019-03-31T13:15:07.113Z,20.12
2019-03-31T13:17:35.626Z,20.25
2019-03-31T13:20:06.427Z,20.25
2019-03-31T13:22:35.063Z,20.27
2019-03-31T13:25:04.926Z,19.99
2019-03-31T13:27:33.450Z,20.14
2019-03-31T13:30:01.960Z,20.02
2019-03-31T13:32:35.550Z,20.21
2019-03-31T13:35:08.389Z,20.18
2019-03-31T13:37:36.097Z,20.28
2019-03-31T13:40:07.170Z,20.38
2019-03-31T13:42:35.791Z,20.46
2019-03-31T13:45:06.295Z,20.55
2019-03-31T13:47:34.808Z,20.58
2019-03-31T13:50:04.983Z,20.48
2019-03-31T13:52:33.505Z,20.34
2019-03-31T13:55:01.990Z,20.27
2019-03-31T13:57:31.868Z,20.37
2019-03-31T14:00:00.725Z,20.27
2019-03-31T14:02:29.244Z,20.25
2019-03-31T14:04:59.417Z,20.22
2019-03-31T14:07:27.942Z,20.23
2019-03-31T14:09:56.421Z,20.23
2019-03-31T14:12:25.105Z,20.35
2019-03-31T14:14:53.574Z,20.45
2019-03-31T14:17:24.450Z,20.52
2019-03-31T14:19:52.355Z,20.50
2019-03-31T14:22:21.026Z,20.56
2019-03-31T14:24:49.495Z,20.56
2019-03-31T14:27:18.013Z,20.77
2019-03-31T14:29:46.924Z,20.73
2019-03-31T14:32:15.435Z,20.61
2019-03-31T14:34:44.009Z,20.44
2019-03-31T14:37:12.483Z,20.36
2019-03-31T14:39:41.010Z,20.37
2019-03-31T14:42:09.512Z,20.45
2019-03-31T14:44:37.998Z,20.67
2019-03-31T14:47:06.521Z,20.72
2019-03-31T14:49:35.134Z,20.60
2019-03-31T14:52:03.689Z,20.54
2019-03-31T14:54:32.210Z,20.38
2019-03-31T14:57:00.798Z,20.26
2019-03-31T14:59:29.320Z,20.08
2019-03-31T15:02:02.912Z,20.14
2019-03-31T15:04:31.447Z,20.17
2019-03-31T15:06:59.930Z,20.33
2019-03-31T15:09:28.446Z,20.32
2019-03-31T15:11:56.959Z,20.38
2019-03-31T15:14:25.513Z,20.38
2019-03-31T15:16:54.685Z,20.37
2019-03-31T15:19:23.204Z,20.45
2019-03-31T15:21:51.806Z,20.55
2019-03-31T15:24:20.312Z,20.67
2019-03-31T15:26:48.820Z,20.81
2019-03-31T15:29:17.355Z,20.84
2019-03-31T15:31:45.931Z,20.90
2019-03-31T15:34:14.436Z,20.90
2019-03-31T15:36:43.042Z,20.90
2019-03-31T15:39:11.558Z,20.84
2019-03-31T15:41:40.079Z,20.84
2019-03-31T15:44:08.894Z,20.65
2019-03-31T15:46:37.397Z,20.23
2019-03-31T15:49:05.904Z,20.03
2019-03-31T15:51:34.496Z,19.69
2019-03-31T15:54:02.991Z,19.36
2019-03-31T15:56:31.595Z,19.11
2019-03-31T15:59:00.096Z,18.93
2019-03-31T16:01:28.583Z,18.72
2019-03-31T16:03:57.060Z,18.59
2019-03-31T16:06:25.571Z,18.48
2019-03-31T16:08:54.061Z,18.41
2019-03-31T16:11:22.560Z,18.37
2019-03-31T16:13:51.081Z,18.28
2019-03-31T16:16:19.564Z,18.22
2019-03-31T16:18:48.040Z,18.14
2019-03-31T16:21:16.566Z,18.07
2019-03-31T16:23:45.047Z,18.05
2019-03-31T16:26:13.530Z,18.01
2019-03-31T16:28:42.029Z,17.83
2019-03-31T16:31:20.794Z,17.75
2019-03-31T16:33:49.328Z,17.58
2019-03-31T16:36:17.787Z,17.53
2019-03-31T16:38:46.251Z,17.50
2019-03-31T16:41:14.768Z,17.48
2019-03-31T16:43:43.232Z,17.45
2019-03-31T16:46:11.701Z,17.46
2019-03-31T16:48:40.195Z,17.42
2019-03-31T16:51:08.839Z,17.36
2019-03-31T16:53:37.317Z,17.21
2019-03-31T16:56:05.867Z,17.18
2019-03-31T16:58:34.380Z,17.08
2019-03-31T17:01:02.863Z,17.05
2019-03-31T17:03:31.343Z,16.99
2019-03-31T17:05:59.826Z,16.87
2019-03-31T17:08:28.286Z,16.79
2019-03-31T17:10:56.763Z,16.77
2019-03-31T17:13:25.254Z,16.67
2019-03-31T17:15:53.757Z,16.52
2019-03-31T17:18:22.233Z,16.34
2019-03-31T17:20:51.766Z,16.25
2019-03-31T17:23:20.243Z,16.13
2019-03-31T17:25:48.732Z,15.88
2019-03-31T17:28:17.579Z,15.78
2019-03-31T17:30:46.025Z,15.51
2019-03-31T17:33:14.544Z,15.33
2019-03-31T17:35:43.025Z,15.21
2019-03-31T17:38:11.502Z,15.19
2019-03-31T17:40:39.997Z,15.11
2019-03-31T17:43:08.478Z,15.04
2019-03-31T17:45:37.006Z,15.01
2019-03-31T17:48:05.581Z,15.01
2019-03-31T17:50:34.047Z,14.88
2019-03-31T17:53:04.035Z,14.71
2019-03-31T17:55:32.991Z,14.61
2019-03-31T17:58:01.940Z,14.56
2019-03-31T18:00:30.767Z,14.51
2019-03-31T18:02:59.287Z,14.44
2019-03-31T18:05:27.755Z,14.29
2019-03-31T18:07:56.247Z,14.23
2019-03-31T18:10:24.773Z,14.24
2019-03-31T18:12:53.286Z,14.23
2019-03-31T18:15:21.774Z,14.17
2019-03-31T18:17:50.267Z,14.02
2019-03-31T18:20:19.016Z,13.94
2019-03-31T18:22:47.468Z,13.93
2019-03-31T18:25:15.972Z,13.85
2019-03-31T18:27:44.455Z,13.72
2019-03-31T18:30:13.477Z,13.66
2019-03-31T18:32:42.048Z,13.66
2019-03-31T18:35:10.771Z,13.71
2019-03-31T18:37:39.239Z,13.73
2019-03-31T18:40:08.774Z,13.71
2019-03-31T18:42:37.290Z,13.65
2019-03-31T18:45:09.554Z,13.65
2019-03-31T18:47:38.055Z,13.60
2019-03-31T18:50:07.566Z,13.57
2019-03-31T18:52:36.138Z,13.52
2019-03-31T18:55:16.283Z,13.52
2019-03-31T18:57:46.406Z,13.48
2019-03-31T19:00:16.661Z,13.43
2019-03-31T19:03:03.380Z,13.30
2019-03-31T19:05:49.846Z,13.26
2019-03-31T19:08:23.312Z,13.13
2019-03-31T19:10:56.355Z,13.11
2019-03-31T19:13:35.504Z,13.14
2019-03-31T19:16:05.687Z,13.17
2019-03-31T19:18:44.324Z,13.17
2019-03-31T19:21:14.786Z,13.11
2019-03-31T19:23:50.940Z,13.03
2019-03-31T19:26:30.268Z,12.89
2019-03-31T19:29:06.082Z,12.85
2019-03-31T19:31:51.763Z,12.87
2019-03-31T19:34:39.858Z,12.83
2019-03-31T19:37:24.959Z,12.80
2019-03-31T19:40:11.464Z,12.72
2019-03-31T19:42:56.850Z,12.65
2019-03-31T19:45:26.978Z,12.60
2019-03-31T19:47:57.102Z,12.64
2019-03-31T19:50:27.240Z,12.59
2019-03-31T19:53:15.676Z,12.55
2019-03-31T19:55:45.800Z,12.54
2019-03-31T19:58:16.122Z,12.56
2019-03-31T20:00:46.304Z,12.59
2019-03-31T20:03:28.354Z,12.57
2019-03-31T20:06:07.579Z,12.58
2019-03-31T20:08:43.613Z,12.55
2019-03-31T20:11:22.223Z,12.54
2019-03-31T20:13:52.393Z,12.54
2019-03-31T20:16:25.494Z,12.51
2019-03-31T20:18:58.490Z,12.49
2019-03-31T20:21:32.166Z,12.45
2019-03-31T20:24:00.568Z,12.41
2019-03-31T20:26:42.606Z,12.40
2019-03-31T20:29:12.733Z,12.32
2019-03-31T20:31:57.882Z,12.19
2019-03-31T20:34:33.698Z,12.10
2019-03-31T20:37:06.555Z,12.08
2019-03-31T20:39:57.064Z,12.08
2019-03-31T20:42:32.425Z,12.11
2019-03-31T20:45:00.911Z,12.15
2019-03-31T20:47:29.403Z,12.10
2019-03-31T20:49:57.910Z,12.08
2019-03-31T20:52:26.378Z,12.00
2019-03-31T20:54:54.879Z,11.93
2019-03-31T20:57:23.668Z,11.89
2019-03-31T20:59:52.149Z,11.87
2019-03-31T21:02:20.632Z,11.82
2019-03-31T21:04:49.138Z,11.79
2019-03-31T21:07:17.625Z,11.79
2019-03-31T21:09:46.105Z,11.75
2019-03-31T21:12:14.581Z,11.73
2019-03-31T21:14:43.047Z,11.71
2019-03-31T21:17:11.521Z,11.65
2019-03-31T21:19:40.010Z,11.60
2019-03-31T21:22:08.572Z,11.60
2019-03-31T21:24:37.066Z,11.54
2019-03-31T21:27:05.556Z,11.56
2019-03-31T21:29:34.274Z,11.57
2019-03-31T21:32:02.730Z,11.55
2019-03-31T21:34:31.211Z,11.51
2019-03-31T21:36:59.674Z,11.52
2019-03-31T21:39:28.134Z,11.53
2019-03-31T21:41:56.629Z,11.45
2019-03-31T21:44:25.138Z,11.53
2019-03-31T21:46:55.989Z,11.55
2019-03-31T21:49:23.895Z,11.53
2019-03-31T21:51:52.385Z,11.55
2019-03-31T21:54:20.870Z,11.53
2019-03-31T21:56:49.358Z,11.50
2019-03-31T21:59:17.853Z,11.49
2019-03-31T22:01:46.412Z,11.47
2019-03-31T22:04:14.917Z,11.43
2019-03-31T22:06:43.386Z,11.38
2019-03-31T22:09:12.015Z,11.33
2019-03-31T22:11:40.501Z,11.30
2019-03-31T22:14:10.645Z,11.30
2019-03-31T22:16:39.182Z,11.25
2019-03-31T22:19:07.689Z,11.20
2019-03-31T22:21:36.162Z,11.08
2019-03-31T22:24:04.891Z,11.00
2019-03-31T22:26:33.430Z,10.95
2019-03-31T22:29:01.907Z,10.82
2019-03-31T22:31:30.734Z,10.74
2019-03-31T22:33:59.223Z,10.73
2019-03-31T22:36:27.684Z,10.70
2019-03-31T22:38:56.169Z,10.61
2019-03-31T22:41:24.747Z,10.57
2019-03-31T22:43:53.287Z,10.49
2019-03-31T22:46:21.745Z,10.44
2019-03-31T22:48:50.235Z,10.32
2019-03-31T22:51:18.712Z,10.28
2019-03-31T22:53:47.196Z,10.27
2019-03-31T22:56:15.705Z,10.22
2019-03-31T22:58:44.170Z,10.19
2019-03-31T23:01:12.651Z,10.16
2019-03-31T23:03:41.185Z,10.16
2019-03-31T23:06:09.907Z,10.15
2019-03-31T23:08:38.357Z,10.15
2019-03-31T23:11:06.860Z,10.19
2019-03-31T23:13:35.328Z,10.16
2019-03-31T23:16:03.838Z,10.16
2019-03-31T23:18:32.300Z,10.18
2019-03-31T23:21:00.772Z,10.20
2019-03-31T23:23:29.271Z,10.19
2019-03-31T23:25:57.750Z,10.15
2019-03-31T23:28:26.225Z,10.08
2019-03-31T23:30:54.749Z,10.01
2019-03-31T23:33:23.221Z,9.91
2019-03-31T23:35:51.684Z,9.91
2019-03-31T23:38:20.183Z,9.86
2019-03-31T23:40:48.636Z,9.77
2019-03-31T23:43:17.098Z,9.65
2019-03-31T23:45:45.611Z,9.62
2019-03-31T23:48:14.083Z,9.57
2019-03-31T23:50:42.566Z,9.61
2019-03-31T23:53:11.064Z,9.62
2019-03-31T23:55:39.543Z,9.62
2019-03-31T23:58:08.045Z,9.60
